Time;durP1;ratioP1;P1;durP2;ratioP2;P2;SDS_P1;SDS_P2;PMS_P1;PMS_P2;Temp;Humidity;BMP_temperature;BMP_pressure;BME280_temperature;BME280_humidity;BME280_pressure;Samples;Min_cycle;Max_cycle;Signal;HPM_P1;HPM_P2
2023/01/08 00:02:26;;;;;;;4.70;3.83;;;;;;;7.41;76.69;100422.41;7394990;19;20027;-72
2023/01/08 00:04:57;;;;;;;4.00;3.60;;;;;;;7.41;76.70;100423.25;7395200;19;20026;-71
2023/01/08 00:07:25;;;;;;;3.95;3.55;;;;;;;7.41;76.56;100425.84;7395027;19;20489;-72
2023/01/08 00:09:54;;;;;;;4.40;3.42;;;;;;;7.43;76.53;100420.59;7394665;19;20372;-72
2023/01/08 00:12:22;;;;;;;5.22;3.75;;;;;;;7.44;76.51;100419.72;7394688;19;20022;-72
2023/01/08 00:14:51;;;;;;;4.70;3.83;;;;;;;7.45;76.46;100414.47;7394162;19;20035;-70
2023/01/08 00:17:19;;;;;;;6.00;4.07;;;;;;;7.44;76.25;100401.44;7394760;19;20031;-70
2023/01/08 00:19:48;;;;;;;5.65;3.92;;;;;;;7.45;75.76;100403.19;7394023;19;20074;-71
2023/01/08 00:22:19;;;;;;;5.07;3.60;;;;;;;7.44;75.95;100397.13;7394497;19;20023;-70
2023/01/08 00:24:47;;;;;;;4.78;3.70;;;;;;;7.44;76.38;100388.41;7394222;19;20032;-71
2023/01/08 00:27:16;;;;;;;5.22;3.72;;;;;;;7.44;76.41;100391.91;7394265;19;20082;-71
2023/01/08 00:29:44;;;;;;;5.38;4.15;;;;;;;7.42;76.03;100387.56;7393658;19;20074;-71
2023/01/08 00:32:13;;;;;;;3.80;3.40;;;;;;;7.40;76.67;100378.91;7394766;19;20031;-71
2023/01/08 00:34:41;;;;;;;4.72;4.07;;;;;;;7.39;76.43;100379.78;7394535;19;20096;-71
2023/01/08 00:37:09;;;;;;;5.07;4.18;;;;;;;7.36;76.66;100362.41;7396397;19;20070;-71
2023/01/08 00:39:41;;;;;;;5.07;4.55;;;;;;;7.33;76.74;100365.94;7394382;19;20511;-71
2023/01/08 00:42:09;;;;;;;5.60;4.07;;;;;;;7.31;76.97;100357.25;7394234;19;20026;-71
2023/01/08 00:44:37;;;;;;;4.85;3.90;;;;;;;7.28;76.86;100365.16;7393973;19;20022;-71
2023/01/08 00:47:06;;;;;;;4.47;3.97;;;;;;;7.25;77.05;100361.72;7393617;19;20014;-71
2023/01/08 00:49:34;;;;;;;5.45;4.32;;;;;;;7.23;77.25;100361.75;7393394;19;20485;-71
2023/01/08 00:52:03;;;;;;;4.65;3.97;;;;;;;7.20;77.19;100366.97;7393940;19;20035;-71
2023/01/08 00:54:31;;;;;;;4.78;4.30;;;;;;;7.18;77.30;100360.94;7393608;19;20026;-71
2023/01/08 00:57:02;;;;;;;5.57;4.32;;;;;;;7.16;77.33;100360.94;7393281;19;20019;-71
2023/01/08 00:59:31;;;;;;;5.75;4.72;;;;;;;7.15;77.16;100350.53;7393319;19;20074;-71
2023/01/08 01:01:59;;;;;;;6.38;4.88;;;;;;;7.13;77.42;100352.31;7393428;19;20018;-71
2023/01/08 01:04:28;;;;;;;5.90;4.75;;;;;;;7.12;77.47;100350.59;7392967;19;20035;-71
2023/01/08 01:06:57;;;;;;;5.28;4.75;;;;;;;7.10;77.72;100354.94;7396469;19;20107;-71
2023/01/08 01:09:25;;;;;;;5.70;4.65;;;;;;;7.08;77.78;100354.13;7399234;19;20031;-71
2023/01/08 01:11:54;;;;;;;7.43;5.35;;;;;;;7.08;77.96;100346.31;7399332;19;20015;-71
2023/01/08 01:14:25;;;;;;;6.45;5.10;;;;;;;7.05;77.66;100354.16;7400614;19;20022;-71
2023/01/08 01:17:06;;;;;;;6.25;5.10;;;;;;;7.03;77.79;100340.25;7398779;19;20086;-71
2023/01/08 01:19:35;;;;;;;7.32;5.32;;;;;;;7.00;78.01;100349.00;7402815;19;20039;-71
2023/01/08 01:22:03;;;;;;;6.63;5.30;;;;;;;6.97;77.95;100339.47;7402011;19;20432;-71
2023/01/08 01:24:32;;;;;;;7.05;5.38;;;;;;;6.93;78.09;100335.19;7398898;19;20482;-71
2023/01/08 01:27:00;;;;;;;5.57;4.90;;;;;;;6.92;78.29;100336.06;7399289;19;20019;-71
2023/01/08 01:29:31;;;;;;;6.13;5.18;;;;;;;6.90;78.09;100332.63;7399134;19;20035;-71
2023/01/08 01:32:00;;;;;;;7.65;5.97;;;;;;;6.88;78.18;100325.69;7399630;19;20045;-71
2023/01/08 01:34:28;;;;;;;9.15;5.47;;;;;;;6.86;78.22;100325.69;7399861;19;20015;-71
2023/01/08 01:36:57;;;;;;;8.18;5.45;;;;;;;6.83;78.32;100310.97;7401503;19;20435;-71
2023/01/08 01:39:25;;;;;;;7.47;5.75;;;;;;;6.83;78.44;100310.09;7399011;19;20090;-71
2023/01/08 01:41:54;;;;;;;7.25;5.50;;;;;;;6.81;78.61;100309.25;7398970;19;20032;-71
2023/01/08 01:44:41;;;;;;;7.43;6.13;;;;;;;6.79;78.44;100308.44;7398656;19;20078;-71
2023/01/08 01:47:21;;;;;;;7.40;5.75;;;;;;;6.75;78.45;100310.22;7399282;19;20014;-71
2023/01/08 01:49:57;;;;;;;7.03;5.43;;;;;;;6.74;78.70;100310.25;7398289;19;20015;-71
2023/01/08 01:52:27;;;;;;;7.38;5.88;;;;;;;6.69;78.80;100303.31;7398341;19;20419;-71
2023/01/08 01:54:56;;;;;;;7.90;5.95;;;;;;;6.68;78.82;100306.84;7398485;19;20022;-71
2023/01/08 01:57:26;;;;;;;10.05;6.60;;;;;;;6.68;78.77;100300.75;7398119;19;20028;-71
2023/01/08 01:59:59;;;;;;;9.23;6.90;;;;;;;6.65;78.84;100296.44;7398028;19;20018;-71
2023/01/08 02:02:28;;;;;;;8.75;6.05;;;;;;;6.64;78.88;100299.91;7398111;19;20489;-71
2023/01/08 02:04:57;;;;;;;9.30;7.00;;;;;;;6.62;78.92;100306.91;7398205;19;20015;-71
2023/01/08 02:07:32;;;;;;;9.48;6.85;;;;;;;6.61;79.22;100299.97;7400789;19;20090;-71
2023/01/08 02:10:09;;;;;;;8.35;6.72;;;;;;;6.59;78.96;100291.28;7400896;19;20075;-72
2023/01/08 02:12:40;;;;;;;7.70;6.45;;;;;;;6.58;79.05;100286.94;7395715;19;20019;-70
2023/01/08 02:15:18;;;;;;;7.70;6.50;;;;;;;6.56;78.97;100286.13;7396371;19;20026;-69
2023/01/08 02:17:55;;;;;;;7.55;5.80;;;;;;;6.54;79.24;100293.09;7401090;19;20018;-70
2023/01/08 02:20:28;;;;;;;7.20;5.70;;;;;;;6.53;79.34;100280.94;7398768;19;20380;-69
2023/01/08 02:23:15;;;;;;;8.95;6.03;;;;;;;6.53;79.12;100280.94;7399610;19;20036;-69
2023/01/08 02:26:13;;;;;;;8.10;5.50;;;;;;;6.55;79.47;100275.72;7400003;19;20018;-69
2023/01/08 02:28:49;;;;;;;7.07;5.93;;;;;;;6.50;79.43;100258.38;7397213;19;20034;-69
2023/01/08 02:31:20;;;;;;;5.97;5.28;;;;;;;6.56;78.99;100253.97;7398986;19;20022;-69
2023/01/08 02:33:48;;;;;;;7.85;6.10;;;;;;;6.60;79.23;100253.06;7398361;19;20027;-69
2023/01/08 02:36:41;;;;;;;12.30;6.45;;;;;;;6.63;78.80;100251.25;7397148;19;20011;-70
2023/01/08 02:39:22;;;;;;;7.30;6.13;;;;;;;6.68;78.90;100252.09;7398932;19;20018;-69
2023/01/08 02:42:03;;;;;;;6.78;5.93;;;;;;;6.73;78.85;100248.53;7399879;19;20028;-70
2023/01/08 02:44:47;;;;;;;6.95;5.63;;;;;;;6.78;78.86;100249.34;7397799;19;20018;-70
2023/01/08 02:47:23;;;;;;;7.88;6.15;;;;;;;6.83;78.58;100234.50;7400062;19;20019;-69
2023/01/08 02:49:56;;;;;;;7.38;5.60;;;;;;;6.90;78.43;100237.84;7399721;19;20022;-69
2023/01/08 02:52:28;;;;;;;6.40;5.80;;;;;;;6.94;78.25;100219.53;7399954;19;20022;-69
2023/01/08 02:54:58;;;;;;;7.70;6.25;;;;;;;6.98;77.91;100220.38;7397065;19;20023;-69
2023/01/08 02:57:28;;;;;;;6.80;5.95;;;;;;;7.01;77.92;100217.69;7396656;19;20380;-70
2023/01/08 02:59:59;;;;;;;6.97;6.28;;;;;;;7.04;77.78;100224.59;7399211;19;20042;-70
2023/01/08 03:02:34;;;;;;;6.75;5.93;;;;;;;7.05;77.62;100228.94;7399506;19;20014;-69
2023/01/08 03:05:09;;;;;;;7.30;6.22;;;;;;;7.07;77.33;100229.78;7398723;19;20490;-69
2023/01/08 03:07:38;;;;;;;8.15;5.97;;;;;;;7.08;77.63;100234.97;7398523;19;20025;-70
2023/01/08 03:10:08;;;;;;;7.78;6.22;;;;;;;7.08;77.44;100227.16;7398693;19;20415;-70
2023/01/08 03:12:47;;;;;;;6.60;5.82;;;;;;;7.08;77.34;100221.09;7398338;19;20028;-69
2023/01/08 03:15:24;;;;;;;7.28;5.90;;;;;;;7.07;77.31;100216.75;7398687;19;20351;-69
2023/01/08 03:17:59;;;;;;;9.20;6.40;;;;;;;7.03;76.84;100220.28;7398269;19;20032;-69
2023/01/08 03:20:27;;;;;;;7.15;6.20;;;;;;;7.00;77.58;100231.63;7396895;19;20035;-69
2023/01/08 03:22:59;;;;;;;7.97;6.53;;;;;;;6.96;76.95;100224.72;7396306;19;20046;-70
2023/01/08 03:25:30;;;;;;;8.57;6.40;;;;;;;6.93;77.50;100237.84;7398834;19;20031;-70
2023/01/08 03:28:02;;;;;;;7.82;6.85;;;;;;;6.89;77.62;100237.00;7398637;19;20014;-70
2023/01/08 03:30:33;;;;;;;8.13;6.10;;;;;;;6.86;77.39;100239.66;7398129;19;20030;-70
2023/01/08 03:33:04;;;;;;;6.70;5.93;;;;;;;6.84;77.71;100236.22;7397191;19;20019;-70
2023/01/08 03:35:34;;;;;;;7.00;5.88;;;;;;;6.84;77.68;100228.41;7397706;19;20018;-70
2023/01/08 03:38:14;;;;;;;7.30;6.00;;;;;;;6.83;77.11;100224.91;7397577;19;20014;-70
2023/01/08 03:40:46;;;;;;;6.55;5.88;;;;;;;6.82;77.30;100220.59;7398250;19;20031;-69
2023/01/08 03:43:15;;;;;;;6.25;5.60;;;;;;;6.83;77.30;100221.44;7397360;19;20035;-70
2023/01/08 03:45:51;;;;;;;7.07;6.18;;;;;;;6.83;76.68;100213.63;7397830;19;20031;-70
2023/01/08 03:48:22;;;;;;;6.63;5.70;;;;;;;6.85;77.07;100222.31;7397361;19;20019;-70
2023/01/08 03:50:50;;;;;;;8.27;6.18;;;;;;;6.87;77.17;100212.69;7395938;19;20029;-70
2023/01/08 03:53:19;;;;;;;6.57;5.53;;;;;;;6.86;77.24;100216.19;7396686;19;20039;-70
2023/01/08 03:55:47;;;;;;;8.05;5.90;;;;;;;6.88;77.22;100205.75;7397354;19;20022;-70
2023/01/08 03:58:16;;;;;;;8.57;5.78;;;;;;;6.87;77.06;100210.09;7396877;19;20018;-70
2023/01/08 04:00:47;;;;;;;6.57;5.88;;;;;;;6.88;76.85;100209.19;7397135;19;20018;-70
2023/01/08 04:03:15;;;;;;;7.03;5.57;;;;;;;6.87;77.21;100209.22;7396825;19;20019;-70
2023/01/08 04:05:44;;;;;;;7.82;5.72;;;;;;;6.86;77.04;100216.19;7395317;19;20022;-70
2023/01/08 04:08:12;;;;;;;6.65;5.47;;;;;;;6.84;76.75;100207.53;7396541;19;20018;-70
2023/01/08 04:10:41;;;;;;;6.85;5.90;;;;;;;6.84;76.85;100207.53;7396177;19;20018;-70
2023/01/08 04:13:09;;;;;;;7.00;5.97;;;;;;;6.82;76.89;100201.47;7395724;19;20031;-70
2023/01/08 04:15:38;;;;;;;6.68;5.93;;;;;;;6.81;76.78;100200.63;7397132;19;20384;-70
2023/01/08 04:18:09;;;;;;;7.68;5.47;;;;;;;6.80;76.71;100195.44;7394542;19;20081;-70
2023/01/08 04:20:37;;;;;;;6.47;5.70;;;;;;;6.79;76.76;100199.78;7396302;19;20428;-70
2023/01/08 04:23:06;;;;;;;6.45;4.93;;;;;;;6.81;76.35;100202.34;7395610;19;20018;-70
2023/01/08 04:25:34;;;;;;;7.53;5.88;;;;;;;6.82;76.67;100198.88;7396495;19;20035;-70
2023/01/08 04:28:03;;;;;;;8.23;6.05;;;;;;;6.82;76.97;100191.91;7396358;19;20031;-70
2023/01/08 04:30:31;;;;;;;5.88;5.28;;;;;;;6.85;76.75;100193.63;7395830;19;20427;-70
2023/01/08 04:33:00;;;;;;;7.15;6.00;;;;;;;6.86;76.78;100197.94;7395787;19;20463;-70
2023/01/08 04:35:31;;;;;;;7.05;6.25;;;;;;;6.90;76.50;100196.13;7396106;19;20035;-70
2023/01/08 04:37:59;;;;;;;7.63;5.95;;;;;;;6.90;76.64;100196.13;7395690;19;20372;-69
2023/01/08 04:40:28;;;;;;;9.73;5.90;;;;;;;6.91;76.63;100195.25;7396068;19;20018;-69
2023/01/08 04:42:56;;;;;;;6.65;5.93;;;;;;;6.94;76.56;100195.22;7393924;19;20019;-70
2023/01/08 04:45:24;;;;;;;6.88;5.47;;;;;;;6.93;76.36;100196.09;7395396;19;20108;-68
2023/01/08 04:47:57;;;;;;;6.45;5.45;;;;;;;6.93;76.30;100202.16;7395209;19;20432;-70
2023/01/08 04:50:25;;;;;;;5.78;5.07;;;;;;;6.94;76.33;100190.84;7395791;19;20419;-70
2023/01/08 04:52:56;;;;;;;8.00;5.57;;;;;;;6.94;76.05;100198.69;7393046;19;20086;-69
2023/01/08 04:55:25;;;;;;;6.53;5.57;;;;;;;6.94;76.10;100195.22;7395436;19;20074;-70
2023/01/08 04:57:53;;;;;;;6.45;5.70;;;;;;;6.94;75.90;100196.06;7394735;19;20063;-69
2023/01/08 05:00:22;;;;;;;6.35;5.22;;;;;;;6.93;75.90;100194.34;7395769;19;20086;-71
2023/01/08 05:02:50;;;;;;;6.15;5.30;;;;;;;6.94;76.37;100201.28;7394482;19;20078;-69
2023/01/08 05:05:19;;;;;;;5.95;5.35;;;;;;;6.94;76.05;100197.84;7394682;19;20085;-70
2023/01/08 05:07:47;;;;;;;7.30;5.82;;;;;;;6.92;75.81;100186.56;7394763;19;20026;-70
2023/01/08 05:10:18;;;;;;;6.05;5.40;;;;;;;6.91;75.55;100185.66;7395096;19;20022;-70
2023/01/08 05:12:47;;;;;;;5.75;5.03;;;;;;;6.88;75.79;100177.91;7393100;19;20086;-69
2023/01/08 05:15:15;;;;;;;9.38;5.43;;;;;;;6.90;76.07;100183.97;7392987;19;20018;-69
2023/01/08 05:17:44;;;;;;;7.28;5.85;;;;;;;6.89;75.99;100182.25;7395043;19;20087;-70
2023/01/08 05:20:13;;;;;;;6.93;5.80;;;;;;;6.85;75.87;100163.19;7394419;19;20550;-70
2023/01/08 05:22:41;;;;;;;6.10;5.28;;;;;;;6.85;75.77;100173.59;7392498;19;20014;-70
2023/01/08 05:25:10;;;;;;;6.10;5.30;;;;;;;6.85;76.03;100176.22;7392414;19;20498;-70
2023/01/08 05:27:41;;;;;;;7.32;5.60;;;;;;;6.83;76.12;100180.59;7394609;19;20018;-69
2023/01/08 05:30:11;;;;;;;6.78;5.40;;;;;;;6.84;76.32;100174.47;7393079;19;20022;-71
2023/01/08 05:32:40;;;;;;;6.20;5.00;;;;;;;6.84;76.25;100173.63;7392518;19;20505;-70
2023/01/08 05:35:09;;;;;;;6.00;5.03;;;;;;;6.83;75.98;100164.94;7394660;19;20078;-69
2023/01/08 05:37:38;;;;;;;6.50;5.00;;;;;;;6.83;76.23;100169.31;7394347;19;20014;-69
2023/01/08 05:40:07;;;;;;;7.72;5.57;;;;;;;6.83;76.23;100172.75;7394390;19;20022;-69
2023/01/08 05:42:36;;;;;;;5.78;4.88;;;;;;;6.84;76.20;100165.81;7392149;19;20087;-69
2023/01/08 05:45:09;;;;;;;6.75;5.55;;;;;;;6.85;76.07;100168.38;7394225;19;20014;-70
2023/01/08 05:47:38;;;;;;;5.40;4.90;;;;;;;6.86;75.99;100169.25;7391981;19;20015;-69
2023/01/08 05:50:07;;;;;;;7.30;5.40;;;;;;;6.87;76.07;100159.69;7396764;19;20038;-69
2023/01/08 05:52:35;;;;;;;5.13;4.50;;;;;;;6.87;75.89;100160.53;7391945;19;20562;-70
2023/01/08 05:55:04;;;;;;;5.78;4.82;;;;;;;6.88;75.61;100164.03;7398960;19;20081;-70
2023/01/08 05:57:32;;;;;;;5.63;5.10;;;;;;;6.83;75.70;100148.44;7401344;19;20046;-69
2023/01/08 06:00:01;;;;;;;6.60;4.70;;;;;;;6.88;75.67;100170.09;7401495;19;20090;-70
2023/01/08 06:02:32;;;;;;;6.05;4.80;;;;;;;6.90;75.36;100165.72;7400802;19;20553;-70
2023/01/08 06:05:00;;;;;;;5.95;4.80;;;;;;;6.89;75.61;100158.78;7400897;19;20073;-70
2023/01/08 06:07:30;;;;;;;5.13;4.63;;;;;;;6.94;75.52;100158.72;7400984;19;20169;-69
2023/01/08 06:09:58;;;;;;;5.28;4.78;;;;;;;6.94;75.49;100161.31;7400981;19;20074;-70
2023/01/08 06:12:27;;;;;;;5.30;4.53;;;;;;;6.95;75.51;100153.47;7399308;19;20039;-70
2023/01/08 06:14:55;;;;;;;5.97;4.15;;;;;;;6.96;75.46;100144.75;7397761;19;20077;-70
2023/01/08 06:17:24;;;;;;;5.47;4.72;;;;;;;6.97;75.09;100141.25;7397744;19;20444;-70
2023/01/08 06:19:55;;;;;;;5.78;5.00;;;;;;;6.98;75.19;100140.38;7400652;19;20032;-70
2023/01/08 06:22:24;;;;;;;5.88;4.38;;;;;;;6.99;75.20;100136.88;7400836;19;20035;-70
2023/01/08 06:24:52;;;;;;;5.03;4.20;;;;;;;7.01;75.19;100137.72;7397899;19;20074;-70
2023/01/08 06:27:20;;;;;;;6.03;4.00;;;;;;;7.01;75.13;100139.44;7400170;19;20082;-69
2023/01/08 06:29:49;;;;;;;5.70;4.35;;;;;;;7.03;75.10;100134.19;7400140;19;20082;-70
2023/01/08 06:32:17;;;;;;;5.25;4.47;;;;;;;7.04;75.28;100130.72;7398926;19;20039;-69
2023/01/08 06:34:46;;;;;;;5.30;4.40;;;;;;;7.06;75.41;100134.16;7397289;19;20078;-69
2023/01/08 06:37:17;;;;;;;5.18;4.68;;;;;;;7.06;75.31;100128.94;7400009;19;20015;-71
2023/01/08 06:39:45;;;;;;;6.15;4.57;;;;;;;7.09;75.18;100136.72;7400205;19;20094;-69
2023/01/08 06:42:14;;;;;;;6.00;4.55;;;;;;;7.11;75.18;100134.94;7399796;19;20081;-69
2023/01/08 06:44:42;;;;;;;4.97;4.47;;;;;;;7.12;75.19;100136.66;7397118;19;20086;-69
2023/01/08 06:47:11;;;;;;;5.10;4.45;;;;;;;7.12;75.12;100140.13;7399514;19;20018;-69
2023/01/08 06:49:39;;;;;;;4.97;4.18;;;;;;;7.14;75.13;100143.59;7399467;19;20078;-69
2023/01/08 06:52:08;;;;;;;6.07;4.65;;;;;;;7.16;75.13;100151.38;7398194;19;20549;-69
2023/01/08 06:54:39;;;;;;;5.72;4.90;;;;;;;7.15;74.76;100150.53;7397048;19;20503;-69
2023/01/08 06:57:07;;;;;;;4.35;3.95;;;;;;;7.19;74.90;100159.16;7399333;19;20681;-69
2023/01/08 06:59:35;;;;;;;5.30;4.40;;;;;;;7.18;74.88;100157.44;7399401;19;20019;-69
2023/01/08 07:02:04;;;;;;;5.18;4.40;;;;;;;7.18;75.00;100160.03;7398841;19;20086;-69
2023/01/08 07:04:32;;;;;;;5.15;4.18;;;;;;;7.20;75.13;100160.00;7396102;19;20015;-69
2023/01/08 07:07:01;;;;;;;4.28;3.80;;;;;;;7.19;75.04;100156.56;7396228;19;20074;-71
2023/01/08 07:09:29;;;;;;;5.05;4.53;;;;;;;7.21;75.10;100161.75;7396580;19;20439;-69
2023/01/08 07:12:09;;;;;;;6.45;4.43;;;;;;;7.18;75.00;100165.25;7398207;19;20082;-69
2023/01/08 07:14:44;;;;;;;10.68;4.38;;;;;;;7.18;75.42;100154.84;7396027;19;20010;-69
2023/01/08 07:17:12;;;;;;;5.65;4.13;;;;;;;7.18;75.22;100160.03;7398456;19;20587;-68
2023/01/08 07:19:42;;;;;;;5.38;4.15;;;;;;;7.18;75.49;100160.03;7398648;19;20431;-69
2023/01/08 07:22:11;;;;;;;6.65;4.45;;;;;;;7.20;75.55;100163.47;7398469;19;20022;-68
2023/01/08 07:24:39;;;;;;;6.78;4.57;;;;;;;7.21;75.57;100164.34;7396444;19;20078;-68
2023/01/08 07:27:10;;;;;;;5.60;4.20;;;;;;;7.21;75.54;100159.97;7398188;19;20550;-69
2023/01/08 07:29:39;;;;;;;6.25;4.82;;;;;;;7.22;75.76;100160.88;7398679;19;20086;-69
2023/01/08 07:32:07;;;;;;;6.93;4.72;;;;;;;7.22;75.72;100158.25;7395546;19;20502;-69
2023/01/08 07:34:35;;;;;;;3.92;3.50;;;;;;;7.23;75.91;100152.13;7396238;19;20078;-69
2023/01/08 07:37:04;;;;;;;6.18;4.85;;;;;;;7.22;76.00;100146.06;7397608;19;20522;-69
2023/01/08 07:39:33;;;;;;;5.47;4.53;;;;;;;7.24;76.12;100146.03;7398222;19;20035;-69
2023/01/08 07:42:01;;;;;;;8.20;4.60;;;;;;;7.24;76.12;100139.06;7397637;19;20021;-68
2023/01/08 07:44:32;;;;;;;7.32;4.70;;;;;;;7.23;76.53;100145.16;7395531;19;20078;-67
2023/01/08 07:47:01;;;;;;;6.53;4.40;;;;;;;7.24;76.39;100149.50;7397311;19;20422;-67
2023/01/08 07:49:29;;;;;;;5.93;4.18;;;;;;;7.25;76.56;100147.75;7397596;19;20026;-68
2023/01/08 07:51:58;;;;;;;5.50;4.60;;;;;;;7.25;76.83;100130.34;7397100;19;20089;-70
2023/01/08 07:54:26;;;;;;;4.82;4.22;;;;;;;7.26;76.98;100132.06;7395203;19;20421;-71
2023/01/08 07:56:56;;;;;;;4.60;3.92;;;;;;;7.27;76.77;100138.16;7395136;19;20070;-71
2023/01/08 07:59:24;;;;;;;4.63;3.72;;;;;;;7.27;76.92;100146.84;7394932;19;20011;-71
2023/01/08 08:01:55;;;;;;;6.35;4.53;;;;;;;7.30;77.06;100138.09;7397086;19;20089;-70
2023/01/08 08:04:24;;;;;;;5.07;4.22;;;;;;;7.32;77.19;100137.16;7395536;19;20090;-72
2023/01/08 08:06:52;;;;;;;5.82;3.80;;;;;;;7.33;77.03;100123.25;7396450;19;20015;-72
2023/01/08 08:09:21;;;;;;;6.68;4.80;;;;;;;7.36;77.31;100119.72;7396562;19;20022;-70
2023/01/08 08:11:49;;;;;;;5.85;4.03;;;;;;;7.39;77.26;100117.03;7396058;19;20027;-71
2023/01/08 08:14:18;;;;;;;8.05;5.15;;;;;;;7.40;77.32;100116.16;7394932;19;20066;-71
2023/01/08 08:16:46;;;;;;;6.32;5.00;;;;;;;7.43;77.24;100112.63;7394371;19;20078;-71
2023/01/08 08:19:17;;;;;;;6.72;4.22;;;;;;;7.45;77.33;100113.47;7396629;19;20164;-70
2023/01/08 08:21:45;;;;;;;5.32;4.57;;;;;;;7.48;77.25;100105.56;7396984;19;20085;-70
2023/01/08 08:24:14;;;;;;;7.03;4.90;;;;;;;7.51;77.16;100105.50;7395010;19;20090;-71
2023/01/08 08:26:43;;;;;;;6.93;5.25;;;;;;;7.56;77.32;100123.72;7396139;19;20040;-71
2023/01/08 08:29:12;;;;;;;6.32;4.88;;;;;;;7.56;77.22;100121.09;7395679;19;20513;-70
2023/01/08 08:31:41;;;;;;;11.05;5.88;;;;;;;7.58;77.07;100117.56;7396111;19;20090;-71
2023/01/08 08:34:09;;;;;;;6.13;4.88;;;;;;;7.60;77.01;100126.22;7394251;19;20015;-71
2023/01/08 08:36:40;;;;;;;5.10;4.20;;;;;;;7.61;76.64;100125.31;7395657;19;20086;-71
2023/01/08 08:39:09;;;;;;;8.50;5.47;;;;;;;7.62;76.67;100111.38;7395504;19;20550;-70
2023/01/08 08:41:37;;;;;;;6.13;4.65;;;;;;;7.63;76.68;100089.63;7395245;19;20019;-71
2023/01/08 08:44:06;;;;;;;6.85;4.55;;;;;;;7.64;76.77;100065.19;7394470;19;20078;-72
2023/01/08 08:46:35;;;;;;;6.90;5.20;;;;;;;7.65;76.87;100046.03;7397073;19;20412;-71
2023/01/08 08:49:03;;;;;;;7.35;5.18;;;;;;;7.65;77.02;100069.53;7394838;19;20019;-71
2023/01/08 08:51:32;;;;;;;11.07;6.15;;;;;;;7.63;77.30;100073.94;7395196;19;20070;-73
2023/01/08 08:54:03;;;;;;;13.95;9.25;;;;;;;7.62;77.38;100082.66;7393585;19;20096;-69
2023/01/08 08:56:31;;;;;;;9.45;6.38;;;;;;;7.59;77.69;100080.09;7394144;19;20031;-70
2023/01/08 08:59:00;;;;;;;10.27;7.57;;;;;;;7.54;77.66;100078.50;7395060;19;20499;-74
2023/01/08 09:01:29;;;;;;;7.68;5.95;;;;;;;7.53;77.99;100066.31;7395469;19;20032;-72
2023/01/08 09:03:57;;;;;;;6.25;4.72;;;;;;;7.49;78.38;100086.41;7393897;19;20018;-70
2023/01/08 09:06:26;;;;;;;5.63;4.05;;;;;;;7.45;79.03;100079.53;7395460;19;20015;-70
2023/01/08 09:08:55;;;;;;;6.25;4.72;;;;;;;7.40;79.05;100086.59;7394230;19;20490;-71
2023/01/08 09:11:26;;;;;;;6.45;4.60;;;;;;;7.35;79.54;100078.84;7394319;19;20038;-71
2023/01/08 09:13:55;;;;;;;7.03;5.13;;;;;;;7.31;79.85;100082.41;7392407;19;20385;-71
2023/01/08 09:16:23;;;;;;;6.60;4.75;;;;;;;7.25;80.07;100103.38;7394523;19;20091;-72
2023/01/08 09:18:52;;;;;;;5.95;4.82;;;;;;;7.21;80.53;100115.63;7394806;19;20074;-72
2023/01/08 09:21:20;;;;;;;6.82;4.70;;;;;;;7.15;81.14;100121.81;7394672;19;20082;-72
2023/01/08 09:23:50;;;;;;;7.03;4.90;;;;;;;7.08;81.78;100128.03;7393187;19;20081;-72
2023/01/08 09:26:18;;;;;;;5.90;5.22;;;;;;;7.04;81.75;100120.28;7394423;19;20107;-72
2023/01/08 09:28:49;;;;;;;7.18;5.88;;;;;;;6.98;82.41;100122.09;7396354;19;20023;-72
2023/01/08 09:31:18;;;;;;;8.02;6.40;;;;;;;6.95;82.72;100122.16;7402473;19;20033;-72
2023/01/08 09:33:49;;;;;;;6.38;5.55;;;;;;;6.92;82.76;100124.81;7399637;19;20019;-72
2023/01/08 09:36:18;;;;;;;8.27;6.45;;;;;;;6.85;83.30;100120.59;7402444;19;20023;-72
2023/01/08 09:38:46;;;;;;;25.52;17.27;;;;;;;6.87;83.47;100118.81;7401916;19;20022;-72
2023/01/08 09:41:20;;;;;;;14.27;11.27;;;;;;;6.86;83.70;100114.47;7401791;19;20111;-72
2023/01/08 09:43:54;;;;;;;8.65;7.38;;;;;;;6.85;83.95;100110.19;7399993;19;20423;-72
2023/01/08 09:46:26;;;;;;;25.48;18.35;;;;;;;6.83;83.92;100097.13;7401731;19;20419;-71
2023/01/08 09:48:58;;;;;;;10.52;9.38;;;;;;;6.81;84.13;100088.50;7402161;19;20022;-72
2023/01/08 09:51:33;;;;;;;7.68;6.75;;;;;;;6.83;84.54;100083.25;7401744;19;20093;-72
2023/01/08 09:54:02;;;;;;;7.97;6.70;;;;;;;6.82;84.77;100091.97;7399062;19;20015;-71
2023/01/08 09:56:31;;;;;;;7.57;6.70;;;;;;;6.81;85.09;100090.22;7400925;19;20022;-71
2023/01/08 09:59:05;;;;;;;8.93;6.28;;;;;;;6.79;85.22;100095.47;7400719;19;20441;-72
2023/01/08 10:01:39;;;;;;;8.32;7.40;;;;;;;6.78;85.50;100100.72;7400936;19;20549;-73
2023/01/08 10:04:09;;;;;;;;;;;;;;;6.77;87.45;100119.84;7399490;19;20032;-73
2023/01/08 10:06:37;;;;;;;13.05;8.40;;;;;;;6.74;86.29;100123.38;7400907;19;19978;-73
2023/01/08 10:09:06;;;;;;;11.32;8.15;;;;;;;6.71;86.51;100112.13;7400881;19;20078;-71
2023/01/08 10:11:41;;;;;;;8.93;7.50;;;;;;;6.69;86.90;100110.41;7400801;19;20082;-72
2023/01/08 10:14:23;;;;;;;10.73;8.18;;;;;;;6.68;87.43;100106.09;7397703;19;20542;-73
2023/01/08 10:16:57;;;;;;;10.15;7.93;;;;;;;6.66;87.23;100102.66;7402217;19;20010;-72
2023/01/08 10:19:26;;;;;;;10.68;8.00;;;;;;;6.66;87.15;100091.34;7401120;19;20082;-72
2023/01/08 10:21:55;;;;;;;9.02;7.45;;;;;;;6.66;87.71;100086.13;7400041;19;20420;-72
2023/01/08 10:24:34;;;;;;;8.68;7.53;;;;;;;6.65;87.83;100074.84;7398430;19;20070;-72
2023/01/08 10:27:25;;;;;;;9.18;7.82;;;;;;;6.65;87.70;100074.00;7400375;19;20011;-72
2023/01/08 10:30:07;;;;;;;12.00;8.82;;;;;;;6.66;88.72;100073.09;7400306;19;20089;-72
2023/01/08 10:32:38;;;;;;;10.50;8.05;;;;;;;6.68;88.55;100076.53;7399914;19;20029;-72
2023/01/08 10:35:09;;;;;;;11.90;8.35;;;;;;;6.69;88.40;100075.66;7398007;19;20018;-71
2023/01/08 10:37:41;;;;;;;11.93;8.68;;;;;;;6.69;89.10;100068.69;7400457;19;20018;-72
2023/01/08 10:40:24;;;;;;;12.20;9.00;;;;;;;6.70;89.17;100061.75;7398496;19;20018;-72
2023/01/08 10:42:54;;;;;;;13.45;7.90;;;;;;;6.70;89.26;100053.94;7399759;19;20090;-72
2023/01/08 10:45:27;;;;;;;10.48;8.10;;;;;;;6.71;89.12;100047.84;7399234;19;20464;-73
2023/01/08 10:47:59;;;;;;;10.95;8.45;;;;;;;6.72;89.21;100051.28;7400195;19;20026;-71
2023/01/08 10:50:30;;;;;;;9.50;8.43;;;;;;;6.71;89.25;100045.22;7399138;19;20010;-71
2023/01/08 10:53:01;;;;;;;9.55;8.30;;;;;;;6.73;89.02;100042.59;7396338;19;20078;-72
2023/01/08 10:55:31;;;;;;;13.75;8.82;;;;;;;6.74;89.44;100044.31;7397534;19;20070;-72
2023/01/08 10:58:01;;;;;;;9.80;8.43;;;;;;;6.75;89.47;100046.00;7398803;19;20018;-71
2023/01/08 11:00:34;;;;;;;11.30;8.75;;;;;;;6.76;89.80;100040.78;7400900;19;20070;-72
2023/01/08 11:03:12;;;;;;;13.05;9.23;;;;;;;6.78;89.56;100051.19;7400893;19;20046;-73
2023/01/08 11:05:42;;;;;;;12.18;9.15;;;;;;;6.80;90.05;100044.22;7399125;19;20408;-71
2023/01/08 11:08:18;;;;;;;12.93;9.60;;;;;;;6.80;90.28;100036.38;7397294;19;20011;-71
2023/01/08 11:10:55;;;;;;;11.60;8.82;;;;;;;6.84;90.70;100046.72;7398862;19;20419;-72
2023/01/08 11:13:24;;;;;;;13.40;9.65;;;;;;;6.85;90.51;100045.00;7397897;19;20078;-72
2023/01/08 11:16:05;;;;;;;13.73;9.57;;;;;;;6.88;90.71;100042.31;7396462;19;20094;-72
2023/01/08 11:18:44;;;;;;;14.02;9.82;;;;;;;6.89;90.33;100033.59;7399249;19;20433;-72
2023/01/08 11:21:21;;;;;;;10.73;8.68;;;;;;;6.93;90.80;100034.41;7399097;19;20074;-71
2023/01/08 11:24:02;;;;;;;12.32;8.80;;;;;;;6.94;90.45;100023.94;7398059;19;20074;-71
2023/01/08 11:26:31;;;;;;;11.73;8.82;;;;;;;6.98;90.50;100023.00;7398707;19;20070;-71
2023/01/08 11:29:06;;;;;;;12.23;9.40;;;;;;;7.01;90.64;100020.34;7397829;19;20373;-72
2023/01/08 11:31:43;;;;;;;10.85;8.73;;;;;;;7.05;90.67;100018.53;7398271;19;20090;-72
2023/01/08 11:34:17;;;;;;;10.77;8.82;;;;;;;7.08;90.57;100007.19;7396096;19;20027;-71
2023/01/08 11:36:51;;;;;;;10.73;8.05;;;;;;;7.13;90.59;100005.34;7398528;19;20029;-71
2023/01/08 11:39:20;;;;;;;10.20;8.48;;;;;;;7.16;90.52;99997.47;7397899;19;20432;-70
2023/01/08 11:42:11;;;;;;;11.55;9.10;;;;;;;7.19;90.04;99989.59;7397616;19;20034;-71
2023/01/08 11:44:48;;;;;;;10.60;8.32;;;;;;;7.23;90.30;99987.75;7396083;19;20030;-72
2023/01/08 11:47:28;;;;;;;11.00;7.90;;;;;;;7.26;90.09;99983.34;7397874;19;20031;-72
2023/01/08 11:50:15;;;;;;;11.65;8.85;;;;;;;7.28;89.88;99978.94;7398247;19;20070;-71